createdAt,value
2022-10-17T00:01:45.256Z,98689.59
2022-10-17T00:04:13.022Z,98673.31
2022-10-17T00:06:40.616Z,98677.72
2022-10-17T00:09:08.756Z,98683.78
2022-10-17T00:11:36.584Z,98676.84
2022-10-17T00:14:09.409Z,98681.19
2022-10-17T00:16:46.716Z,98678.56
2022-10-17T00:19:23.230Z,98684.84
2022-10-17T00:21:50.989Z,98691.16
2022-10-17T00:24:18.979Z,98690.44
2022-10-17T00:26:49.146Z,98686.91
2022-10-17T00:29:16.647Z,98681.03
2022-10-17T00:31:44.734Z,98684.38
2022-10-17T00:34:11.988Z,98675.88
2022-10-17T00:36:40.369Z,98683.03
2022-10-17T00:39:08.409Z,98680.44
2022-10-17T00:41:43.107Z,98676.09
2022-10-17T00:44:32.801Z,98683.22
2022-10-17T00:47:09.997Z,98681.44
2022-10-17T00:49:50.294Z,98679.63
2022-10-17T00:52:24.306Z,98684.94
2022-10-17T00:55:08.762Z,98683.44
2022-10-17T00:57:36.531Z,98674.88
2022-10-17T01:00:08.727Z,98685.19
2022-10-17T01:02:35.987Z,98682.59
2022-10-17T01:05:04.035Z,98682.69
2022-10-17T01:07:34.713Z,98690.59
2022-10-17T01:10:05.954Z,98683.81
2022-10-17T01:12:47.545Z,98690.94
2022-10-17T01:15:20.368Z,98694.50
2022-10-17T01:18:09.492Z,98696.13
2022-10-17T01:20:54.602Z,98691.00
2022-10-17T01:23:55.482Z,98688.47
2022-10-17T01:26:49.491Z,98690.31
2022-10-17T01:29:34.333Z,98701.59
2022-10-17T01:32:04.765Z,98701.69
2022-10-17T01:34:36.157Z,98687.72
2022-10-17T01:37:18.155Z,98687.66
2022-10-17T01:39:48.180Z,98691.06
2022-10-17T01:42:47.590Z,98692.75
2022-10-17T01:45:27.281Z,98691.16
2022-10-17T01:47:57.131Z,98692.84
2022-10-17T01:50:31.476Z,98690.31
2022-10-17T01:53:09.887Z,98695.63
2022-10-17T01:55:41.055Z,98686.19
2022-10-17T01:58:13.680Z,98705.28
2022-10-17T02:00:44.025Z,98701.88
2022-10-17T02:03:17.054Z,98698.50
2022-10-17T02:05:46.192Z,98704.56
2022-10-17T02:08:13.903Z,98709.00
2022-10-17T02:10:49.589Z,98709.78
2022-10-17T02:13:41.061Z,98716.13
2022-10-17T02:16:42.618Z,98713.47
2022-10-17T02:19:29.340Z,98722.22
2022-10-17T02:22:18.413Z,98726.53
2022-10-17T02:25:17.031Z,98724.91
2022-10-17T02:28:05.368Z,98724.16
2022-10-17T02:30:52.533Z,98729.38
2022-10-17T02:33:28.567Z,98722.75
2022-10-17T02:36:01.797Z,98714.28
2022-10-17T02:38:30.997Z,98732.25
2022-10-17T02:40:58.514Z,98746.03
2022-10-17T02:43:26.353Z,98745.25
2022-10-17T02:45:54.286Z,98739.34
2022-10-17T02:48:35.032Z,98739.28
2022-10-17T02:51:05.858Z,98749.66
2022-10-17T02:54:14.587Z,98748.69
2022-10-17T02:57:06.751Z,98751.50
2022-10-17T02:59:37.255Z,98751.88
2022-10-17T03:02:10.469Z,98753.53
2022-10-17T03:04:37.861Z,98758.00
2022-10-17T03:07:04.943Z,98748.47
2022-10-17T03:09:32.101Z,98753.63
2022-10-17T03:11:59.753Z,98758.84
2022-10-17T03:14:27.071Z,98753.75
2022-10-17T03:16:54.322Z,98746.97
2022-10-17T03:19:21.540Z,98761.53
2022-10-17T03:21:48.690Z,98755.66
2022-10-17T03:24:16.108Z,98761.59
2022-10-17T03:26:43.301Z,98758.00
2022-10-17T03:29:10.793Z,98760.75
2022-10-17T03:31:38.094Z,98761.59
2022-10-17T03:34:05.242Z,98761.66
2022-10-17T03:36:32.632Z,98755.66
2022-10-17T03:39:00.160Z,98763.47
2022-10-17T03:41:27.657Z,98767.75
2022-10-17T03:43:54.928Z,98773.00
2022-10-17T03:46:22.182Z,98773.19
2022-10-17T03:48:49.383Z,98770.69
2022-10-17T03:51:16.916Z,98778.44
2022-10-17T03:53:51.668Z,98767.41
2022-10-17T03:56:22.326Z,98789.03
2022-10-17T03:58:50.037Z,98784.75
2022-10-17T04:01:19.262Z,98790.88
2022-10-17T04:03:53.389Z,98791.88
2022-10-17T04:06:21.548Z,98791.13
2022-10-17T04:08:49.205Z,98793.88
2022-10-17T04:11:21.461Z,98787.81
2022-10-17T04:13:48.808Z,98783.50
2022-10-17T04:16:17.518Z,98781.91
2022-10-17T04:18:44.968Z,98787.81
2022-10-17T04:21:13.627Z,98789.69
2022-10-17T04:23:40.551Z,98787.25
2022-10-17T04:26:07.928Z,98794.03
2022-10-17T04:28:36.473Z,98789.91
2022-10-17T04:31:06.885Z,98788.91
2022-10-17T04:33:35.111Z,98794.44
2022-10-17T04:36:04.648Z,98799.69
2022-10-17T04:38:32.037Z,98799.84
2022-10-17T04:41:03.287Z,98802.53
2022-10-17T04:43:35.676Z,98802.44
2022-10-17T04:46:04.650Z,98808.41
2022-10-17T04:48:32.058Z,98802.38
2022-10-17T04:51:05.253Z,98811.78
2022-10-17T04:53:34.339Z,98804.94
2022-10-17T04:56:01.543Z,98799.63
2022-10-17T04:58:31.540Z,98807.16
2022-10-17T05:00:58.758Z,98808.00
2022-10-17T05:03:25.720Z,98805.34
2022-10-17T05:05:52.664Z,98810.63
2022-10-17T05:08:19.652Z,98814.06
2022-10-17T05:10:46.867Z,98816.47
2022-10-17T05:13:14.827Z,98821.56
2022-10-17T05:15:42.188Z,98816.47
2022-10-17T05:18:09.399Z,98822.44
2022-10-17T05:20:36.986Z,98819.16
2022-10-17T05:23:03.938Z,98821.81
2022-10-17T05:25:31.082Z,98821.75
2022-10-17T05:27:58.059Z,98832.84
2022-10-17T05:30:25.060Z,98828.31
2022-10-17T05:32:55.942Z,98835.69
2022-10-17T05:35:23.217Z,98833.00
2022-10-17T05:37:50.280Z,98839.72
2022-10-17T05:40:17.640Z,98845.59
2022-10-17T05:42:49.604Z,98839.56
2022-10-17T05:45:17.117Z,98825.53
2022-10-17T05:47:44.540Z,98840.81
2022-10-17T05:50:11.804Z,98841.63
2022-10-17T05:52:38.898Z,98857.50
2022-10-17T05:55:07.085Z,98848.09
2022-10-17T05:57:34.128Z,98847.09
2022-10-17T06:00:01.216Z,98851.09
2022-10-17T06:02:29.091Z,98854.50
2022-10-17T06:04:56.084Z,98853.31
2022-10-17T06:07:23.120Z,98850.38
2022-10-17T06:09:50.667Z,98851.69
2022-10-17T06:12:17.666Z,98856.06
2022-10-17T06:14:47.760Z,98851.75
2022-10-17T06:17:16.232Z,98855.81
2022-10-17T06:19:45.159Z,98858.03
2022-10-17T06:22:12.317Z,98863.16
2022-10-17T06:24:39.298Z,98867.06
2022-10-17T06:27:10.888Z,98864.56
2022-10-17T06:29:39.889Z,98854.41
2022-10-17T06:32:09.889Z,98856.16
2022-10-17T06:34:39.722Z,98856.47
2022-10-17T06:37:06.886Z,98859.03
2022-10-17T06:39:35.350Z,98862.72
2022-10-17T06:42:04.447Z,98854.38
2022-10-17T06:44:32.171Z,98856.81
2022-10-17T06:47:00.341Z,98855.66
2022-10-17T06:49:28.139Z,98855.81
2022-10-17T06:51:55.397Z,98852.97
2022-10-17T06:54:22.299Z,98859.25
2022-10-17T06:56:49.299Z,98856.00
2022-10-17T06:59:16.538Z,98854.56
2022-10-17T07:01:46.242Z,98844.38
2022-10-17T07:04:14.564Z,98848.22
2022-10-17T07:06:42.345Z,98843.53
2022-10-17T07:09:09.817Z,98848.97
2022-10-17T07:11:37.783Z,98853.47
2022-10-17T07:14:04.523Z,98849.47
2022-10-17T07:16:38.879Z,98850.81
2022-10-17T07:19:05.961Z,98842.97
2022-10-17T07:21:38.956Z,98849.97
2022-10-17T07:24:07.707Z,98843.25
2022-10-17T07:26:34.872Z,98843.16
2022-10-17T07:29:02.611Z,98849.28
2022-10-17T07:31:29.580Z,98850.41
2022-10-17T07:33:57.022Z,98845.72
2022-10-17T07:36:24.200Z,98840.91
2022-10-17T07:38:51.115Z,98844.97
2022-10-17T07:41:21.722Z,98840.13
2022-10-17T07:43:49.656Z,98839.91
2022-10-17T07:46:16.716Z,98838.16
2022-10-17T07:48:43.679Z,98841.00
2022-10-17T07:51:11.019Z,98849.94
2022-10-17T07:53:41.768Z,98853.31
2022-10-17T07:56:11.690Z,98854.03
2022-10-17T07:58:39.418Z,98847.06
2022-10-17T08:01:14.869Z,98848.53
2022-10-17T08:03:44.831Z,98839.41
2022-10-17T08:06:13.120Z,98832.88
2022-10-17T08:08:40.558Z,98832.94
2022-10-17T08:11:10.289Z,98830.66
2022-10-17T08:13:38.272Z,98831.63
2022-10-17T08:16:11.001Z,98831.34
2022-10-17T08:18:42.921Z,98830.22
2022-10-17T08:21:11.962Z,98816.09
2022-10-17T08:23:39.008Z,98826.31
2022-10-17T08:26:10.833Z,98817.50
2022-10-17T08:28:40.338Z,98817.00
2022-10-17T08:31:10.474Z,98823.91
2022-10-17T08:33:38.515Z,98824.34
2022-10-17T08:36:06.566Z,98820.97
2022-10-17T08:38:35.949Z,98824.03
2022-10-17T08:41:07.518Z,98815.00
2022-10-17T08:44:03.544Z,98815.44
2022-10-17T08:46:34.288Z,98817.81
2022-10-17T08:49:06.477Z,98816.41
2022-10-17T08:51:40.746Z,98818.50
2022-10-17T08:54:24.644Z,98812.63
2022-10-17T08:56:54.780Z,98811.72
2022-10-17T08:59:29.197Z,98813.44
2022-10-17T09:02:18.684Z,98803.06
2022-10-17T09:04:56.519Z,98815.94
2022-10-17T09:07:57.515Z,98811.47
2022-10-17T09:10:41.356Z,98813.44
2022-10-17T09:14:12.049Z,98810.66
2022-10-17T09:16:47.201Z,98819.09
2022-10-17T09:19:23.705Z,98816.31
2022-10-17T09:22:00.391Z,98824.16
2022-10-17T09:24:58.256Z,98807.94
2022-10-17T09:27:36.574Z,98812.81
2022-10-17T09:30:44.167Z,98805.00
2022-10-17T09:33:34.781Z,98799.97
2022-10-17T09:36:21.127Z,98801.22
2022-10-17T09:38:53.290Z,98799.28
2022-10-17T09:41:44.717Z,98803.47
2022-10-17T09:44:37.124Z,98796.63
2022-10-17T09:47:39.525Z,98796.78
2022-10-17T09:50:21.055Z,98806.81
2022-10-17T09:52:50.962Z,98788.22
2022-10-17T09:55:22.854Z,98794.94
2022-10-17T09:58:02.806Z,98805.72
2022-10-17T10:00:34.667Z,98793.66
2022-10-17T10:03:25.082Z,98799.78
2022-10-17T10:06:15.515Z,98794.47
2022-10-17T10:08:55.112Z,98787.34
2022-10-17T10:11:26.602Z,98784.66
2022-10-17T10:14:14.590Z,98787.16
2022-10-17T10:16:46.222Z,98782.66
2022-10-17T10:19:50.738Z,98783.66
2022-10-17T10:22:20.229Z,98779.00
2022-10-17T10:25:46.186Z,98775.59
2022-10-17T10:28:17.708Z,98772.53
2022-10-17T10:30:54.194Z,98765.88
2022-10-17T10:33:33.358Z,98773.63
2022-10-17T10:36:10.130Z,98764.81
2022-10-17T10:38:45.222Z,98765.75
2022-10-17T10:41:13.113Z,98768.53
2022-10-17T10:46:33.395Z,98759.66
2022-10-17T10:49:02.516Z,98762.81
2022-10-17T10:51:50.169Z,98761.44
2022-10-17T10:54:32.678Z,98759.38
2022-10-17T10:57:04.179Z,98753.19
2022-10-17T10:59:40.256Z,98754.81
2022-10-17T11:02:26.348Z,98748.59
2022-10-17T11:05:12.556Z,98745.22
2022-10-17T11:07:45.974Z,98750.72
2022-10-17T11:10:37.894Z,98742.31
2022-10-17T11:13:17.689Z,98744.56
2022-10-17T11:16:10.467Z,98744.94
2022-10-17T11:18:47.452Z,98742.75
2022-10-17T11:21:24.500Z,98735.81
2022-10-17T11:24:33.549Z,98738.84
2022-10-17T11:27:03.364Z,98725.75
2022-10-17T11:29:33.811Z,98731.38
2022-10-17T11:32:59.562Z,98731.78
2022-10-17T11:35:43.405Z,98727.53
2022-10-17T11:38:27.959Z,98728.72
2022-10-17T11:40:59.791Z,98714.03
2022-10-17T11:43:35.933Z,98723.25
2022-10-17T11:46:12.402Z,98717.75
2022-10-17T11:49:07.037Z,98716.63
2022-10-17T11:52:02.110Z,98711.00
2022-10-17T11:54:37.667Z,98710.69
2022-10-17T11:57:15.169Z,98710.88
2022-10-17T12:00:01.269Z,98706.88
2022-10-17T12:02:45.039Z,98714.09
2022-10-17T12:05:38.054Z,98719.56
2022-10-17T12:08:10.555Z,98709.22
2022-10-17T12:11:01.142Z,98707.97
2022-10-17T12:13:32.488Z,98709.94
2022-10-17T12:16:19.862Z,98701.81
2022-10-17T12:19:11.628Z,98707.72
2022-10-17T12:22:26.249Z,98711.09
2022-10-17T12:25:00.837Z,98713.47
2022-10-17T12:27:38.905Z,98711.88
2022-10-17T12:30:12.307Z,98719.53
2022-10-17T12:33:08.888Z,98718.91
2022-10-17T12:35:38.543Z,98720.03
2022-10-17T12:38:17.899Z,98715.97
2022-10-17T12:40:48.684Z,98710.34
2022-10-17T12:43:16.278Z,98707.97
2022-10-17T12:45:56.553Z,98713.38
2022-10-17T12:48:38.730Z,98712.84
2022-10-17T12:51:35.407Z,98701.28
2022-10-17T12:54:10.234Z,98711.75
2022-10-17T12:56:43.838Z,98711.59
2022-10-17T12:59:22.818Z,98718.38
2022-10-17T13:01:57.809Z,98710.22
2022-10-17T13:04:26.222Z,98706.44
2022-10-17T13:06:57.184Z,98715.44
2022-10-17T13:09:33.323Z,98714.03
2022-10-17T13:12:03.523Z,98712.25
2022-10-17T13:14:33.352Z,98711.53
2022-10-17T13:17:05.612Z,98708.88
2022-10-17T13:19:42.816Z,98718.56
2022-10-17T13:22:20.872Z,98719.69
2022-10-17T13:24:49.626Z,98729.66
2022-10-17T13:27:34.279Z,98729.13
2022-10-17T13:30:18.027Z,98740.03
2022-10-17T13:32:45.692Z,98728.84
2022-10-17T13:35:17.444Z,98727.75
2022-10-17T13:37:51.558Z,98729.56
2022-10-17T13:40:49.114Z,98732.38
2022-10-17T13:43:24.534Z,98730.84
2022-10-17T13:46:25.435Z,98732.66
2022-10-17T13:48:53.144Z,98730.69
2022-10-17T13:51:20.666Z,98731.13
2022-10-17T13:53:47.820Z,98731.22
2022-10-17T13:56:28.365Z,98727.91
2022-10-17T13:59:10.224Z,98726.06
2022-10-17T14:01:38.516Z,98723.28
2022-10-17T14:04:14.108Z,98733.47
2022-10-17T14:06:51.171Z,98735.16
2022-10-17T14:09:29.321Z,98732.94
2022-10-17T14:11:58.317Z,98732.06
2022-10-17T14:14:26.689Z,98730.38
2022-10-17T14:16:54.863Z,98729.25
2022-10-17T14:19:38.725Z,98730.63
2022-10-17T14:22:38.416Z,98737.09
2022-10-17T14:25:08.862Z,98731.06
2022-10-17T14:27:55.853Z,98736.91
2022-10-17T14:30:51.791Z,98739.13
2022-10-17T14:33:27.807Z,98737.84
2022-10-17T14:36:00.103Z,98735.34
2022-10-17T14:38:29.877Z,98738.53
2022-10-17T14:44:14.985Z,98728.63
2022-10-17T14:46:50.531Z,98735.72
2022-10-17T14:49:25.592Z,98732.16
2022-10-17T14:52:14.933Z,98737.97
2022-10-17T14:54:48.810Z,98730.66
2022-10-17T14:57:30.306Z,98738.56
2022-10-17T14:59:58.866Z,98738.25
2022-10-17T15:02:27.836Z,98736.41
2022-10-17T15:04:55.436Z,98740.94
2022-10-17T15:07:24.047Z,98749.81
2022-10-17T15:09:53.164Z,98753.22
2022-10-17T15:12:23.861Z,98749.44
2022-10-17T15:14:52.158Z,98759.84
2022-10-17T15:17:21.167Z,98763.63
2022-10-17T15:19:49.226Z,98762.22
2022-10-17T15:22:16.454Z,98766.94
2022-10-17T15:24:43.528Z,98771.78
2022-10-17T15:27:16.884Z,98772.28
2022-10-17T15:29:44.501Z,98773.59
2022-10-17T15:32:11.918Z,98772.38
2022-10-17T15:34:38.978Z,98780.38
2022-10-17T15:37:14.670Z,98778.19
2022-10-17T15:39:41.609Z,98784.16
2022-10-17T15:42:12.964Z,98788.69
2022-10-17T15:44:44.290Z,98795.81
2022-10-17T15:47:25.851Z,98799.38
2022-10-17T15:52:37.421Z,98803.53
2022-10-17T15:55:06.202Z,98801.25
2022-10-17T15:57:42.112Z,98808.03
2022-10-17T16:00:30.280Z,98819.41
2022-10-17T16:02:57.928Z,98818.06
2022-10-17T16:05:26.658Z,98818.78
2022-10-17T16:07:54.899Z,98825.13
2022-10-17T16:10:29.024Z,98821.63
2022-10-17T16:12:56.736Z,98838.28
2022-10-17T16:15:44.183Z,98840.78
2022-10-17T16:18:52.211Z,98848.94
2022-10-17T16:21:23.041Z,98849.00
2022-10-17T16:23:50.598Z,98848.53
2022-10-17T16:26:18.102Z,98854.59
2022-10-17T16:28:46.256Z,98854.31
2022-10-17T16:31:20.221Z,98859.69
2022-10-17T16:33:48.177Z,98868.69
2022-10-17T16:36:15.131Z,98861.72
2022-10-17T16:38:42.195Z,98867.75
2022-10-17T16:41:29.237Z,98873.22
2022-10-17T16:44:00.551Z,98875.66
2022-10-17T16:46:30.836Z,98877.91
2022-10-17T16:48:59.021Z,98881.56
2022-10-17T16:51:30.001Z,98878.84
2022-10-17T16:54:00.344Z,98891.56
2022-10-17T16:56:32.970Z,98890.63
2022-10-17T16:59:01.212Z,98890.66
2022-10-17T17:01:29.662Z,98902.03
2022-10-17T17:03:57.242Z,98892.72
2022-10-17T17:06:30.923Z,98901.38
2022-10-17T17:08:58.374Z,98899.00
2022-10-17T17:11:27.010Z,98895.97
2022-10-17T17:13:59.042Z,98891.25
2022-10-17T17:16:27.686Z,98907.19
2022-10-17T17:19:00.202Z,98902.22
2022-10-17T17:21:28.152Z,98896.69
2022-10-17T17:23:59.080Z,98910.00
2022-10-17T17:26:28.381Z,98902.28
2022-10-17T17:28:57.517Z,98907.63
2022-10-17T17:31:27.758Z,98906.00
2022-10-17T17:36:32.928Z,98910.19
2022-10-17T17:39:02.169Z,98910.63
2022-10-17T17:41:29.994Z,98904.19
2022-10-17T17:43:57.670Z,98906.81
2022-10-17T17:46:25.825Z,98913.31
2022-10-17T17:48:54.510Z,98917.88
2022-10-17T17:51:28.318Z,98921.66
2022-10-17T17:53:56.571Z,98912.25
2022-10-17T17:56:30.065Z,98913.63
2022-10-17T17:59:03.889Z,98913.25
2022-10-17T18:01:35.375Z,98916.22
2022-10-17T18:04:03.545Z,98917.28
2022-10-17T18:06:31.061Z,98913.91
2022-10-17T18:08:59.608Z,98914.06
2022-10-17T18:11:27.943Z,98917.63
2022-10-17T18:14:00.320Z,98915.25
2022-10-17T18:16:28.952Z,98914.56
2022-10-17T18:18:56.252Z,98920.97
2022-10-17T18:21:23.964Z,98932.59
2022-10-17T18:23:52.062Z,98921.38
2022-10-17T18:26:22.503Z,98918.16
2022-10-17T18:28:58.559Z,98929.78
2022-10-17T18:31:29.244Z,98927.41
2022-10-17T18:34:03.760Z,98921.53
2022-10-17T18:36:32.450Z,98922.47
2022-10-17T18:39:01.050Z,98921.72
2022-10-17T18:41:28.889Z,98932.50
2022-10-17T18:44:08.860Z,98928.34
2022-10-17T18:49:19.448Z,98926.88
2022-10-17T18:51:50.407Z,98924.50
2022-10-17T18:54:21.756Z,98921.09
2022-10-17T18:56:54.294Z,98925.56
2022-10-17T18:59:36.663Z,98926.81
2022-10-17T19:02:04.636Z,98932.63
2022-10-17T19:04:31.712Z,98927.56
2022-10-17T19:06:58.941Z,98929.41
2022-10-17T19:09:26.508Z,98933.25
2022-10-17T19:11:54.113Z,98934.09
2022-10-17T19:14:21.757Z,98934.91
2022-10-17T19:16:51.397Z,98929.63
2022-10-17T19:19:31.428Z,98930.75
2022-10-17T19:22:00.708Z,98934.41
2022-10-17T19:24:29.208Z,98929.44
2022-10-17T19:26:58.558Z,98935.66
2022-10-17T19:29:28.624Z,98940.91
2022-10-17T19:34:28.180Z,98933.56
2022-10-17T19:36:56.116Z,98938.09
2022-10-17T19:39:24.309Z,98940.84
2022-10-17T19:41:51.536Z,98937.63
2022-10-17T19:44:19.227Z,98932.84
2022-10-17T19:46:49.525Z,98932.47
2022-10-17T19:49:17.607Z,98936.44
2022-10-17T19:51:44.911Z,98941.38
2022-10-17T19:54:13.149Z,98939.94
2022-10-17T19:56:43.418Z,98936.56
2022-10-17T19:59:14.168Z,98940.88
2022-10-17T20:01:41.550Z,98947.03
2022-10-17T20:04:11.247Z,98940.88
2022-10-17T20:06:39.669Z,98942.66
2022-10-17T20:09:12.486Z,98945.59
2022-10-17T20:11:46.603Z,98945.81
2022-10-17T20:14:15.737Z,98938.81
2022-10-17T20:16:45.125Z,98942.38
2022-10-17T20:19:14.017Z,98938.16
2022-10-17T20:21:41.784Z,98943.56
2022-10-17T20:24:12.564Z,98941.06
2022-10-17T20:26:40.273Z,98935.97
2022-10-17T20:29:13.224Z,98945.59
2022-10-17T20:31:42.456Z,98941.53
2022-10-17T20:34:13.245Z,98938.91
2022-10-17T20:36:41.692Z,98937.97
2022-10-17T20:39:11.499Z,98941.72
2022-10-17T20:41:39.278Z,98941.72
2022-10-17T20:44:07.115Z,98937.47
2022-10-17T20:46:37.165Z,98926.53
2022-10-17T20:49:06.871Z,98929.06
2022-10-17T20:51:34.796Z,98921.34
2022-10-17T20:54:03.082Z,98932.72
2022-10-17T20:56:32.600Z,98929.47
2022-10-17T20:59:12.396Z,98930.25
2022-10-17T21:01:42.755Z,98928.69
2022-10-17T21:04:45.388Z,98928.81
2022-10-17T21:07:00.269Z,98938.41
2022-10-17T21:09:27.699Z,98933.28
2022-10-17T21:11:56.183Z,98936.91
2022-10-17T21:14:24.893Z,98916.63
2022-10-17T21:16:52.719Z,98940.75
2022-10-17T21:19:20.226Z,98927.97
2022-10-17T21:21:47.236Z,98929.72
2022-10-17T21:24:18.426Z,98926.34
2022-10-17T21:26:47.424Z,98931.44
2022-10-17T21:29:14.634Z,98925.69
2022-10-17T21:31:44.085Z,98936.06
2022-10-17T21:34:18.470Z,98933.50
2022-10-17T21:36:46.650Z,98931.03
2022-10-17T21:39:15.646Z,98933.63
2022-10-17T21:41:44.327Z,98926.72
2022-10-17T21:44:18.332Z,98925.94
2022-10-17T21:46:55.714Z,98930.47
2022-10-17T21:49:25.932Z,98928.69
2022-10-17T21:51:53.573Z,98927.00
2022-10-17T21:54:23.404Z,98922.94
2022-10-17T21:56:51.382Z,98917.03
2022-10-17T21:59:18.765Z,98920.47
2022-10-17T22:01:46.684Z,98938.03
2022-10-17T22:04:16.667Z,98931.53
2022-10-17T22:06:46.218Z,98932.50
2022-10-17T22:09:19.408Z,98932.72
2022-10-17T22:11:48.360Z,98926.66
2022-10-17T22:14:18.457Z,98928.38
2022-10-17T22:16:46.876Z,98930.09
2022-10-17T22:19:25.339Z,98928.38
2022-10-17T22:21:53.164Z,98925.81
2022-10-17T22:24:27.416Z,98926.78
2022-10-17T22:26:54.517Z,98923.41
2022-10-17T22:29:21.876Z,98918.31
2022-10-17T22:31:49.054Z,98926.06
2022-10-17T22:34:17.535Z,98924.41
2022-10-17T22:36:44.934Z,98919.47
2022-10-17T22:39:12.519Z,98924.00
2022-10-17T22:41:39.915Z,98923.16
2022-10-17T22:44:07.634Z,98922.44
2022-10-17T22:46:38.137Z,98927.63
2022-10-17T22:49:08.468Z,98915.75
2022-10-17T22:51:35.804Z,98921.81
2022-10-17T22:54:03.505Z,98921.13
2022-10-17T22:56:30.729Z,98924.72
2022-10-17T22:59:00.845Z,98920.53
2022-10-17T23:01:28.392Z,98920.00
2022-10-17T23:03:56.021Z,98917.31
2022-10-17T23:06:24.057Z,98911.25
2022-10-17T23:08:51.766Z,98918.31
2022-10-17T23:11:21.160Z,98911.50
2022-10-17T23:13:51.010Z,98908.22
2022-10-17T23:16:18.937Z,98907.25
2022-10-17T23:18:46.720Z,98899.63
2022-10-17T23:21:14.361Z,98900.25
2022-10-17T23:23:42.309Z,98899.38
2022-10-17T23:26:11.088Z,98902.03
2022-10-17T23:28:42.752Z,98897.13
2022-10-17T23:31:21.650Z,98899.72
2022-10-17T23:33:50.656Z,98903.25
2022-10-17T23:36:23.529Z,98898.03
2022-10-17T23:38:52.759Z,98894.63
2022-10-17T23:41:22.983Z,98899.00
2022-10-17T23:43:54.509Z,98886.00
2022-10-17T23:46:21.516Z,98894.84
2022-10-17T23:48:48.993Z,98893.38
2022-10-17T23:51:16.561Z,98878.97
2022-10-17T23:53:44.178Z,98888.47
2022-10-17T23:56:11.801Z,98874.59
2022-10-17T23:58:39.606Z,98887.69
